sensor_id;sensor_type;location;lat;lon;timestamp;temperature;humidity
48208;DHT22;33997;53.278;9.708;2023-05-21T00:00:58;11.50;88.60
48208;DHT22;33997;53.278;9.708;2023-05-21T00:03:25;11.50;88.70
48208;DHT22;33997;53.278;9.708;2023-05-21T00:05:52;11.50;88.60
48208;DHT22;33997;53.278;9.708;2023-05-21T00:08:17;11.50;88.60
48208;DHT22;33997;53.278;9.708;2023-05-21T00:10:43;11.50;88.40
48208;DHT22;33997;53.278;9.708;2023-05-21T00:13:08;11.50;88.10
48208;DHT22;33997;53.278;9.708;2023-05-21T00:15:35;11.50;88.10
48208;DHT22;33997;53.278;9.708;2023-05-21T00:18:00;11.50;88.00
48208;DHT22;33997;53.278;9.708;2023-05-21T00:20:26;11.40;88.00
48208;DHT22;33997;53.278;9.708;2023-05-21T00:22:53;11.40;88.20
48208;DHT22;33997;53.278;9.708;2023-05-21T00:25:19;11.30;88.20
48208;DHT22;33997;53.278;9.708;2023-05-21T00:27:45;11.30;88.30
48208;DHT22;33997;53.278;9.708;2023-05-21T00:30:10;11.20;88.40
48208;DHT22;33997;53.278;9.708;2023-05-21T00:32:36;11.20;88.20
48208;DHT22;33997;53.278;9.708;2023-05-21T00:35:02;11.20;88.40
48208;DHT22;33997;53.278;9.708;2023-05-21T00:37:27;11.10;88.50
48208;DHT22;33997;53.278;9.708;2023-05-21T00:39:57;11.10;88.50
48208;DHT22;33997;53.278;9.708;2023-05-21T00:42:22;11.10;88.50
48208;DHT22;33997;53.278;9.708;2023-05-21T00:44:52;11.10;88.60
48208;DHT22;33997;53.278;9.708;2023-05-21T00:47:18;11.10;88.50
48208;DHT22;33997;53.278;9.708;2023-05-21T00:49:46;11.10;88.50
48208;DHT22;33997;53.278;9.708;2023-05-21T00:52:13;11.10;88.50
48208;DHT22;33997;53.278;9.708;2023-05-21T00:54:39;11.20;88.50
48208;DHT22;33997;53.278;9.708;2023-05-21T00:57:05;11.20;88.40
48208;DHT22;33997;53.278;9.708;2023-05-21T00:59:31;11.30;88.10
48208;DHT22;33997;53.278;9.708;2023-05-21T01:01:57;11.30;88.20
48208;DHT22;33997;53.278;9.708;2023-05-21T01:04:29;11.30;87.90
48208;DHT22;33997;53.278;9.708;2023-05-21T01:06:55;11.30;88.00
48208;DHT22;33997;53.278;9.708;2023-05-21T01:09:25;11.30;87.80
48208;DHT22;33997;53.278;9.708;2023-05-21T01:11:51;11.20;87.90
48208;DHT22;33997;53.278;9.708;2023-05-21T01:14:18;11.20;87.80
48208;DHT22;33997;53.278;9.708;2023-05-21T01:16:46;11.10;88.00
48208;DHT22;33997;53.278;9.708;2023-05-21T01:19:15;11.10;88.10
48208;DHT22;33997;53.278;9.708;2023-05-21T01:21:52;11.00;88.20
48208;DHT22;33997;53.278;9.708;2023-05-21T01:24:20;11.00;88.30
48208;DHT22;33997;53.278;9.708;2023-05-21T01:26:46;11.10;88.30
48208;DHT22;33997;53.278;9.708;2023-05-21T01:29:12;11.10;88.20
48208;DHT22;33997;53.278;9.708;2023-05-21T01:31:51;11.10;88.10
48208;DHT22;33997;53.278;9.708;2023-05-21T01:34:26;11.20;87.70
48208;DHT22;33997;53.278;9.708;2023-05-21T01:40:07;11.30;87.60
48208;DHT22;33997;53.278;9.708;2023-05-21T01:42:35;11.30;87.40
48208;DHT22;33997;53.278;9.708;2023-05-21T01:45:03;11.30;87.30
48208;DHT22;33997;53.278;9.708;2023-05-21T01:47:32;11.30;87.30
48208;DHT22;33997;53.278;9.708;2023-05-21T01:49:58;11.30;87.00
48208;DHT22;33997;53.278;9.708;2023-05-21T01:52:24;11.30;87.10
48208;DHT22;33997;53.278;9.708;2023-05-21T01:54:50;11.30;87.00
48208;DHT22;33997;53.278;9.708;2023-05-21T01:57:16;11.40;86.90
48208;DHT22;33997;53.278;9.708;2023-05-21T01:59:42;11.40;86.90
48208;DHT22;33997;53.278;9.708;2023-05-21T02:02:08;11.40;86.70
48208;DHT22;33997;53.278;9.708;2023-05-21T02:04:34;11.40;86.50
48208;DHT22;33997;53.278;9.708;2023-05-21T02:07:00;11.40;86.20
48208;DHT22;33997;53.278;9.708;2023-05-21T02:09:26;11.40;86.40
48208;DHT22;33997;53.278;9.708;2023-05-21T02:11:52;11.40;86.50
48208;DHT22;33997;53.278;9.708;2023-05-21T02:14:17;11.30;86.50
48208;DHT22;33997;53.278;9.708;2023-05-21T02:16:42;11.30;86.60
48208;DHT22;33997;53.278;9.708;2023-05-21T02:19:08;11.30;86.60
48208;DHT22;33997;53.278;9.708;2023-05-21T02:21:34;11.30;86.70
48208;DHT22;33997;53.278;9.708;2023-05-21T02:24:00;11.20;86.80
48208;DHT22;33997;53.278;9.708;2023-05-21T02:26:25;11.20;86.90
48208;DHT22;33997;53.278;9.708;2023-05-21T02:28:53;11.20;87.00
48208;DHT22;33997;53.278;9.708;2023-05-21T02:31:19;11.20;86.90
48208;DHT22;33997;53.278;9.708;2023-05-21T02:33:45;11.20;86.70
48208;DHT22;33997;53.278;9.708;2023-05-21T02:36:10;11.10;86.80
48208;DHT22;33997;53.278;9.708;2023-05-21T02:38:37;11.10;86.90
48208;DHT22;33997;53.278;9.708;2023-05-21T02:41:04;11.20;87.00
48208;DHT22;33997;53.278;9.708;2023-05-21T02:43:30;11.20;87.00
48208;DHT22;33997;53.278;9.708;2023-05-21T02:45:55;11.10;86.80
48208;DHT22;33997;53.278;9.708;2023-05-21T02:48:21;11.10;86.90
48208;DHT22;33997;53.278;9.708;2023-05-21T02:50:46;11.10;86.70
48208;DHT22;33997;53.278;9.708;2023-05-21T02:53:12;11.20;86.90
48208;DHT22;33997;53.278;9.708;2023-05-21T02:55:37;11.20;86.70
48208;DHT22;33997;53.278;9.708;2023-05-21T02:58:03;11.20;86.80
48208;DHT22;33997;53.278;9.708;2023-05-21T03:00:28;11.10;86.70
48208;DHT22;33997;53.278;9.708;2023-05-21T03:02:54;11.20;86.70
48208;DHT22;33997;53.278;9.708;2023-05-21T03:05:19;11.10;86.70
48208;DHT22;33997;53.278;9.708;2023-05-21T03:07:45;11.10;86.70
48208;DHT22;33997;53.278;9.708;2023-05-21T03:10:11;11.10;86.60
48208;DHT22;33997;53.278;9.708;2023-05-21T03:12:36;11.10;86.90
48208;DHT22;33997;53.278;9.708;2023-05-21T03:15:02;11.10;86.70
48208;DHT22;33997;53.278;9.708;2023-05-21T03:17:28;11.10;86.90
48208;DHT22;33997;53.278;9.708;2023-05-21T03:19:53;11.10;86.80
48208;DHT22;33997;53.278;9.708;2023-05-21T03:22:19;11.00;86.80
48208;DHT22;33997;53.278;9.708;2023-05-21T03:24:44;11.00;87.30
48208;DHT22;33997;53.278;9.708;2023-05-21T03:27:10;11.00;87.30
48208;DHT22;33997;53.278;9.708;2023-05-21T03:29:35;11.00;87.70
48208;DHT22;33997;53.278;9.708;2023-05-21T03:32:04;10.90;87.80
48208;DHT22;33997;53.278;9.708;2023-05-21T03:34:30;10.90;87.80
48208;DHT22;33997;53.278;9.708;2023-05-21T03:36:58;10.90;87.60
48208;DHT22;33997;53.278;9.708;2023-05-21T03:39:24;10.80;88.00
48208;DHT22;33997;53.278;9.708;2023-05-21T03:41:49;10.90;87.90
48208;DHT22;33997;53.278;9.708;2023-05-21T03:44:15;10.90;88.00
48208;DHT22;33997;53.278;9.708;2023-05-21T03:46:41;10.90;87.90
48208;DHT22;33997;53.278;9.708;2023-05-21T03:49:06;10.80;88.30
48208;DHT22;33997;53.278;9.708;2023-05-21T03:51:32;10.90;88.10
48208;DHT22;33997;53.278;9.708;2023-05-21T03:53:58;10.90;88.30
48208;DHT22;33997;53.278;9.708;2023-05-21T03:56:24;11.00;88.00
48208;DHT22;33997;53.278;9.708;2023-05-21T03:58:50;11.00;88.10
48208;DHT22;33997;53.278;9.708;2023-05-21T04:01:15;11.10;87.90
48208;DHT22;33997;53.278;9.708;2023-05-21T04:03:42;11.10;87.80
48208;DHT22;33997;53.278;9.708;2023-05-21T04:06:08;11.20;87.90
48208;DHT22;33997;53.278;9.708;2023-05-21T04:08:34;11.30;87.90
48208;DHT22;33997;53.278;9.708;2023-05-21T04:11:01;11.30;87.60
48208;DHT22;33997;53.278;9.708;2023-05-21T04:13:26;11.30;87.70
48208;DHT22;33997;53.278;9.708;2023-05-21T04:15:52;11.40;87.50
48208;DHT22;33997;53.278;9.708;2023-05-21T04:18:18;11.50;87.40
48208;DHT22;33997;53.278;9.708;2023-05-21T04:20:44;11.50;87.30
48208;DHT22;33997;53.278;9.708;2023-05-21T04:23:10;11.60;87.10
48208;DHT22;33997;53.278;9.708;2023-05-21T04:25:36;11.60;87.00
48208;DHT22;33997;53.278;9.708;2023-05-21T04:28:03;11.70;87.00
48208;DHT22;33997;53.278;9.708;2023-05-21T04:30:28;11.70;87.10
48208;DHT22;33997;53.278;9.708;2023-05-21T04:32:54;11.70;86.80
48208;DHT22;33997;53.278;9.708;2023-05-21T04:35:19;11.70;86.70
48208;DHT22;33997;53.278;9.708;2023-05-21T04:37:45;11.70;86.70
48208;DHT22;33997;53.278;9.708;2023-05-21T04:40:12;11.70;86.70
48208;DHT22;33997;53.278;9.708;2023-05-21T04:42:43;11.70;86.90
48208;DHT22;33997;53.278;9.708;2023-05-21T04:45:10;11.70;86.90
48208;DHT22;33997;53.278;9.708;2023-05-21T04:47:36;11.80;86.70
48208;DHT22;33997;53.278;9.708;2023-05-21T04:50:02;11.80;86.80
48208;DHT22;33997;53.278;9.708;2023-05-21T04:52:29;11.80;86.80
48208;DHT22;33997;53.278;9.708;2023-05-21T04:54:55;11.80;86.80
48208;DHT22;33997;53.278;9.708;2023-05-21T04:57:20;11.90;87.00
48208;DHT22;33997;53.278;9.708;2023-05-21T04:59:46;11.90;87.00
48208;DHT22;33997;53.278;9.708;2023-05-21T05:02:12;12.00;86.90
48208;DHT22;33997;53.278;9.708;2023-05-21T05:04:37;12.10;86.90
48208;DHT22;33997;53.278;9.708;2023-05-21T05:07:03;12.20;86.80
48208;DHT22;33997;53.278;9.708;2023-05-21T05:09:28;12.30;86.60
48208;DHT22;33997;53.278;9.708;2023-05-21T05:11:55;12.30;86.50
48208;DHT22;33997;53.278;9.708;2023-05-21T05:14:21;12.30;86.00
48208;DHT22;33997;53.278;9.708;2023-05-21T05:16:46;12.50;86.20
48208;DHT22;33997;53.278;9.708;2023-05-21T05:19:15;12.60;86.00
48208;DHT22;33997;53.278;9.708;2023-05-21T05:21:40;12.60;85.70
48208;DHT22;33997;53.278;9.708;2023-05-21T05:24:06;12.60;85.10
48208;DHT22;33997;53.278;9.708;2023-05-21T05:26:31;12.70;85.10
48208;DHT22;33997;53.278;9.708;2023-05-21T05:28:57;12.70;85.20
48208;DHT22;33997;53.278;9.708;2023-05-21T05:31:22;12.80;85.20
48208;DHT22;33997;53.278;9.708;2023-05-21T05:33:48;12.90;85.50
48208;DHT22;33997;53.278;9.708;2023-05-21T05:36:13;13.00;85.80
48208;DHT22;33997;53.278;9.708;2023-05-21T05:38:39;13.10;85.20
48208;DHT22;33997;53.278;9.708;2023-05-21T05:41:04;13.30;84.40
48208;DHT22;33997;53.278;9.708;2023-05-21T05:43:30;13.30;84.30
48208;DHT22;33997;53.278;9.708;2023-05-21T05:45:56;13.50;84.60
48208;DHT22;33997;53.278;9.708;2023-05-21T05:48:21;13.40;84.10
48208;DHT22;33997;53.278;9.708;2023-05-21T05:50:47;13.60;84.50
48208;DHT22;33997;53.278;9.708;2023-05-21T05:53:13;13.60;83.80
48208;DHT22;33997;53.278;9.708;2023-05-21T05:55:39;13.80;84.30
48208;DHT22;33997;53.278;9.708;2023-05-21T05:58:05;13.80;83.20
48208;DHT22;33997;53.278;9.708;2023-05-21T06:00:30;14.00;83.70
48208;DHT22;33997;53.278;9.708;2023-05-21T06:02:56;14.20;83.30
48208;DHT22;33997;53.278;9.708;2023-05-21T06:05:21;14.40;83.40
48208;DHT22;33997;53.278;9.708;2023-05-21T06:07:47;14.50;81.20
48208;DHT22;33997;53.278;9.708;2023-05-21T06:10:12;14.50;82.10
48208;DHT22;33997;53.278;9.708;2023-05-21T06:12:38;14.60;81.80
48208;DHT22;33997;53.278;9.708;2023-05-21T06:15:04;14.70;82.00
48208;DHT22;33997;53.278;9.708;2023-05-21T06:17:30;14.60;81.60
48208;DHT22;33997;53.278;9.708;2023-05-21T06:19:56;14.80;81.90
48208;DHT22;33997;53.278;9.708;2023-05-21T06:22:21;15.00;81.60
48208;DHT22;33997;53.278;9.708;2023-05-21T06:24:47;15.00;80.80
48208;DHT22;33997;53.278;9.708;2023-05-21T06:27:12;15.20;81.20
48208;DHT22;33997;53.278;9.708;2023-05-21T06:29:38;15.20;79.80
48208;DHT22;33997;53.278;9.708;2023-05-21T06:32:06;15.40;81.40
48208;DHT22;33997;53.278;9.708;2023-05-21T06:34:31;15.50;80.80
48208;DHT22;33997;53.278;9.708;2023-05-21T06:36:57;15.60;80.20
48208;DHT22;33997;53.278;9.708;2023-05-21T06:39:22;15.80;80.30
48208;DHT22;33997;53.278;9.708;2023-05-21T06:41:48;15.90;79.80
48208;DHT22;33997;53.278;9.708;2023-05-21T06:44:14;16.00;78.50
48208;DHT22;33997;53.278;9.708;2023-05-21T06:46:40;16.10;79.60
48208;DHT22;33997;53.278;9.708;2023-05-21T06:49:06;16.40;79.50
48208;DHT22;33997;53.278;9.708;2023-05-21T06:51:32;16.40;78.40
48208;DHT22;33997;53.278;9.708;2023-05-21T06:53:57;16.50;78.10
48208;DHT22;33997;53.278;9.708;2023-05-21T06:56:23;16.90;77.50
48208;DHT22;33997;53.278;9.708;2023-05-21T06:58:48;17.00;77.00
48208;DHT22;33997;53.278;9.708;2023-05-21T07:01:14;17.00;76.50
48208;DHT22;33997;53.278;9.708;2023-05-21T07:03:40;17.40;77.90
48208;DHT22;33997;53.278;9.708;2023-05-21T07:06:06;17.60;77.00
48208;DHT22;33997;53.278;9.708;2023-05-21T07:08:31;17.60;75.30
48208;DHT22;33997;53.278;9.708;2023-05-21T07:10:57;17.60;75.50
48208;DHT22;33997;53.278;9.708;2023-05-21T07:13:22;17.90;76.20
48208;DHT22;33997;53.278;9.708;2023-05-21T07:15:48;17.80;74.40
48208;DHT22;33997;53.278;9.708;2023-05-21T07:18:13;18.00;75.00
48208;DHT22;33997;53.278;9.708;2023-05-21T07:20:39;18.00;75.10
48208;DHT22;33997;53.278;9.708;2023-05-21T07:23:05;18.00;75.40
48208;DHT22;33997;53.278;9.708;2023-05-21T07:25:30;17.90;74.10
48208;DHT22;33997;53.278;9.708;2023-05-21T07:27:56;18.00;75.20
48208;DHT22;33997;53.278;9.708;2023-05-21T07:30:21;18.00;75.30
48208;DHT22;33997;53.278;9.708;2023-05-21T07:32:47;18.00;75.10
48208;DHT22;33997;53.278;9.708;2023-05-21T07:35:12;18.10;74.80
48208;DHT22;33997;53.278;9.708;2023-05-21T07:37:38;18.30;76.40
48208;DHT22;33997;53.278;9.708;2023-05-21T07:40:04;18.10;74.50
48208;DHT22;33997;53.278;9.708;2023-05-21T07:42:30;18.20;74.20
48208;DHT22;33997;53.278;9.708;2023-05-21T07:44:56;18.60;72.40
48208;DHT22;33997;53.278;9.708;2023-05-21T07:47:21;19.10;74.30
48208;DHT22;33997;53.278;9.708;2023-05-21T07:49:48;19.40;71.50
48208;DHT22;33997;53.278;9.708;2023-05-21T07:52:13;19.70;70.70
48208;DHT22;33997;53.278;9.708;2023-05-21T07:54:39;20.00;69.90
48208;DHT22;33997;53.278;9.708;2023-05-21T07:57:04;20.00;69.40
48208;DHT22;33997;53.278;9.708;2023-05-21T07:59:30;20.10;69.40
48208;DHT22;33997;53.278;9.708;2023-05-21T08:01:56;20.10;70.00
48208;DHT22;33997;53.278;9.708;2023-05-21T08:04:22;20.30;69.60
48208;DHT22;33997;53.278;9.708;2023-05-21T08:06:47;20.40;68.10
48208;DHT22;33997;53.278;9.708;2023-05-21T08:09:13;20.50;69.20
48208;DHT22;33997;53.278;9.708;2023-05-21T08:11:38;20.60;69.90
48208;DHT22;33997;53.278;9.708;2023-05-21T08:14:04;20.10;68.50
48208;DHT22;33997;53.278;9.708;2023-05-21T08:16:30;20.30;70.70
48208;DHT22;33997;53.278;9.708;2023-05-21T08:18:55;20.40;68.70
48208;DHT22;33997;53.278;9.708;2023-05-21T08:21:21;20.50;70.80
48208;DHT22;33997;53.278;9.708;2023-05-21T08:23:47;20.40;67.20
48208;DHT22;33997;53.278;9.708;2023-05-21T08:26:12;20.60;67.80
48208;DHT22;33997;53.278;9.708;2023-05-21T08:28:40;20.50;69.30
48208;DHT22;33997;53.278;9.708;2023-05-21T08:31:06;20.90;69.90
48208;DHT22;33997;53.278;9.708;2023-05-21T08:33:34;21.00;69.70
48208;DHT22;33997;53.278;9.708;2023-05-21T08:36:01;21.10;67.70
48208;DHT22;33997;53.278;9.708;2023-05-21T08:38:27;21.10;68.60
48208;DHT22;33997;53.278;9.708;2023-05-21T08:40:53;21.10;67.50
48208;DHT22;33997;53.278;9.708;2023-05-21T08:43:19;21.40;68.80
48208;DHT22;33997;53.278;9.708;2023-05-21T08:45:52;21.40;65.70
48208;DHT22;33997;53.278;9.708;2023-05-21T08:48:21;21.70;67.90
48208;DHT22;33997;53.278;9.708;2023-05-21T08:50:48;21.70;67.10
48208;DHT22;33997;53.278;9.708;2023-05-21T08:53:14;21.80;67.20
48208;DHT22;33997;53.278;9.708;2023-05-21T08:55:40;21.90;66.90
48208;DHT22;33997;53.278;9.708;2023-05-21T08:58:07;22.00;65.10
48208;DHT22;33997;53.278;9.708;2023-05-21T09:00:32;22.00;65.60
48208;DHT22;33997;53.278;9.708;2023-05-21T09:02:58;22.40;65.40
48208;DHT22;33997;53.278;9.708;2023-05-21T09:05:26;22.50;67.60
48208;DHT22;33997;53.278;9.708;2023-05-21T09:08:04;22.80;66.40
48208;DHT22;33997;53.278;9.708;2023-05-21T09:10:45;23.20;66.30
48208;DHT22;33997;53.278;9.708;2023-05-21T09:13:13;23.50;64.50
48208;DHT22;33997;53.278;9.708;2023-05-21T09:15:40;23.20;63.20
48208;DHT22;33997;53.278;9.708;2023-05-21T09:18:06;23.20;63.40
48208;DHT22;33997;53.278;9.708;2023-05-21T09:20:32;23.40;63.90
48208;DHT22;33997;53.278;9.708;2023-05-21T09:23:02;23.50;63.10
48208;DHT22;33997;53.278;9.708;2023-05-21T09:25:28;23.40;62.40
48208;DHT22;33997;53.278;9.708;2023-05-21T09:27:55;23.40;62.70
48208;DHT22;33997;53.278;9.708;2023-05-21T09:30:22;23.80;63.00
48208;DHT22;33997;53.278;9.708;2023-05-21T09:32:58;23.60;60.90
48208;DHT22;33997;53.278;9.708;2023-05-21T09:35:24;24.00;62.80
48208;DHT22;33997;53.278;9.708;2023-05-21T09:37:51;24.40;62.20
48208;DHT22;33997;53.278;9.708;2023-05-21T09:40:19;24.20;63.10
48208;DHT22;33997;53.278;9.708;2023-05-21T09:42:49;24.30;62.50
48208;DHT22;33997;53.278;9.708;2023-05-21T09:45:17;24.40;62.40
48208;DHT22;33997;53.278;9.708;2023-05-21T09:47:44;24.30;59.40
48208;DHT22;33997;53.278;9.708;2023-05-21T09:50:11;24.70;61.50
48208;DHT22;33997;53.278;9.708;2023-05-21T09:52:38;24.90;61.20
48208;DHT22;33997;53.278;9.708;2023-05-21T09:55:05;25.20;59.70
48208;DHT22;33997;53.278;9.708;2023-05-21T09:57:31;24.90;59.60
48208;DHT22;33997;53.278;9.708;2023-05-21T09:59:56;24.90;60.10
48208;DHT22;33997;53.278;9.708;2023-05-21T10:02:23;25.30;60.00
48208;DHT22;33997;53.278;9.708;2023-05-21T10:04:50;25.40;60.40
48208;DHT22;33997;53.278;9.708;2023-05-21T10:07:18;25.50;58.00
48208;DHT22;33997;53.278;9.708;2023-05-21T10:09:46;26.00;59.60
48208;DHT22;33997;53.278;9.708;2023-05-21T10:12:14;25.90;59.80
48208;DHT22;33997;53.278;9.708;2023-05-21T10:14:42;26.20;58.80
48208;DHT22;33997;53.278;9.708;2023-05-21T10:17:11;26.10;59.00
48208;DHT22;33997;53.278;9.708;2023-05-21T10:19:37;26.30;56.10
48208;DHT22;33997;53.278;9.708;2023-05-21T10:22:05;26.30;58.00
48208;DHT22;33997;53.278;9.708;2023-05-21T10:24:31;26.20;57.40
48208;DHT22;33997;53.278;9.708;2023-05-21T10:26:57;26.30;56.90
48208;DHT22;33997;53.278;9.708;2023-05-21T10:29:23;26.10;56.60
48208;DHT22;33997;53.278;9.708;2023-05-21T10:31:51;26.30;55.60
48208;DHT22;33997;53.278;9.708;2023-05-21T10:34:18;26.90;57.20
48208;DHT22;33997;53.278;9.708;2023-05-21T10:36:43;27.00;54.90
48208;DHT22;33997;53.278;9.708;2023-05-21T10:39:11;26.90;57.40
48208;DHT22;33997;53.278;9.708;2023-05-21T10:41:54;26.80;56.00
48208;DHT22;33997;53.278;9.708;2023-05-21T10:47:02;27.00;55.00
48208;DHT22;33997;53.278;9.708;2023-05-21T10:52:41;27.40;52.80
48208;DHT22;33997;53.278;9.708;2023-05-21T10:55:37;27.80;53.30
48208;DHT22;33997;53.278;9.708;2023-05-21T11:01:05;27.60;52.20
48208;DHT22;33997;53.278;9.708;2023-05-21T11:03:32;28.00;53.30
48208;DHT22;33997;53.278;9.708;2023-05-21T11:05:58;28.20;49.90
48208;DHT22;33997;53.278;9.708;2023-05-21T11:08:27;28.30;49.20
48208;DHT22;33997;53.278;9.708;2023-05-21T11:10:58;28.00;50.90
48208;DHT22;33997;53.278;9.708;2023-05-21T11:13:25;28.10;50.40
48208;DHT22;33997;53.278;9.708;2023-05-21T11:21:09;27.90;50.20
48208;DHT22;33997;53.278;9.708;2023-05-21T11:23:50;27.70;51.70
48208;DHT22;33997;53.278;9.708;2023-05-21T11:26:17;27.80;50.50
48208;DHT22;33997;53.278;9.708;2023-05-21T11:28:43;27.20;51.10
48208;DHT22;33997;53.278;9.708;2023-05-21T11:31:22;26.90;52.10
48208;DHT22;33997;53.278;9.708;2023-05-21T11:36:44;26.70;52.10
48208;DHT22;33997;53.278;9.708;2023-05-21T11:39:12;27.20;52.50
48208;DHT22;33997;53.278;9.708;2023-05-21T11:41:50;27.20;51.80
48208;DHT22;33997;53.278;9.708;2023-05-21T11:44:15;27.20;52.40
48208;DHT22;33997;53.278;9.708;2023-05-21T11:46:42;27.00;53.40
48208;DHT22;33997;53.278;9.708;2023-05-21T11:49:08;27.20;51.90
48208;DHT22;33997;53.278;9.708;2023-05-21T11:51:35;27.50;51.60
48208;DHT22;33997;53.278;9.708;2023-05-21T11:54:01;27.10;52.40
48208;DHT22;33997;53.278;9.708;2023-05-21T11:56:27;27.70;52.00
48208;DHT22;33997;53.278;9.708;2023-05-21T11:58:53;28.50;50.10
48208;DHT22;33997;53.278;9.708;2023-05-21T12:01:23;28.40;51.10
48208;DHT22;33997;53.278;9.708;2023-05-21T12:03:49;28.70;49.60
48208;DHT22;33997;53.278;9.708;2023-05-21T12:06:14;29.20;50.30
48208;DHT22;33997;53.278;9.708;2023-05-21T12:08:42;28.50;47.30
48208;DHT22;33997;53.278;9.708;2023-05-21T12:11:07;28.10;47.70
48208;DHT22;33997;53.278;9.708;2023-05-21T12:13:33;28.10;48.30
48208;DHT22;33997;53.278;9.708;2023-05-21T12:15:58;29.00;47.80
48208;DHT22;33997;53.278;9.708;2023-05-21T12:18:24;29.40;47.80
48208;DHT22;33997;53.278;9.708;2023-05-21T12:20:50;29.90;47.10
48208;DHT22;33997;53.278;9.708;2023-05-21T12:23:23;30.00;45.10
48208;DHT22;33997;53.278;9.708;2023-05-21T12:25:49;29.50;44.20
48208;DHT22;33997;53.278;9.708;2023-05-21T12:28:15;29.60;45.30
48208;DHT22;33997;53.278;9.708;2023-05-21T12:30:41;30.50;46.00
48208;DHT22;33997;53.278;9.708;2023-05-21T12:33:06;30.40;43.00
48208;DHT22;33997;53.278;9.708;2023-05-21T12:35:32;30.90;45.00
48208;DHT22;33997;53.278;9.708;2023-05-21T12:38:00;31.00;45.80
48208;DHT22;33997;53.278;9.708;2023-05-21T12:40:38;31.00;42.90
48208;DHT22;33997;53.278;9.708;2023-05-21T12:43:05;30.70;45.70
48208;DHT22;33997;53.278;9.708;2023-05-21T12:45:31;31.00;42.70
48208;DHT22;33997;53.278;9.708;2023-05-21T12:48:00;31.70;43.20
48208;DHT22;33997;53.278;9.708;2023-05-21T12:50:26;31.30;41.90
48208;DHT22;33997;53.278;9.708;2023-05-21T12:52:55;31.60;42.80
48208;DHT22;33997;53.278;9.708;2023-05-21T12:55:23;31.60;41.70
48208;DHT22;33997;53.278;9.708;2023-05-21T12:58:02;31.20;41.90
48208;DHT22;33997;53.278;9.708;2023-05-21T13:00:30;31.90;41.60
48208;DHT22;33997;53.278;9.708;2023-05-21T13:02:56;31.90;40.10
48208;DHT22;33997;53.278;9.708;2023-05-21T13:05:24;31.20;43.20
48208;DHT22;33997;53.278;9.708;2023-05-21T13:07:49;31.50;41.10
48208;DHT22;33997;53.278;9.708;2023-05-21T13:10:16;31.20;41.80
48208;DHT22;33997;53.278;9.708;2023-05-21T13:12:41;30.40;44.30
48208;DHT22;33997;53.278;9.708;2023-05-21T13:15:08;30.60;42.20
48208;DHT22;33997;53.278;9.708;2023-05-21T13:17:34;30.30;44.00
48208;DHT22;33997;53.278;9.708;2023-05-21T13:20:04;30.30;43.40
48208;DHT22;33997;53.278;9.708;2023-05-21T13:22:31;31.10;43.00
48208;DHT22;33997;53.278;9.708;2023-05-21T13:24:57;30.90;42.50
48208;DHT22;33997;53.278;9.708;2023-05-21T13:27:22;30.40;41.00
48208;DHT22;33997;53.278;9.708;2023-05-21T13:29:47;30.30;42.60
48208;DHT22;33997;53.278;9.708;2023-05-21T13:32:13;30.40;41.70
48208;DHT22;33997;53.278;9.708;2023-05-21T13:34:38;30.80;43.00
48208;DHT22;33997;53.278;9.708;2023-05-21T13:37:04;29.60;43.10
48208;DHT22;33997;53.278;9.708;2023-05-21T13:39:29;30.10;44.50
48208;DHT22;33997;53.278;9.708;2023-05-21T13:41:55;29.70;43.40
48208;DHT22;33997;53.278;9.708;2023-05-21T13:44:21;29.90;44.60
48208;DHT22;33997;53.278;9.708;2023-05-21T13:46:46;29.80;44.20
48208;DHT22;33997;53.278;9.708;2023-05-21T13:49:12;29.90;45.90
48208;DHT22;33997;53.278;9.708;2023-05-21T13:51:37;29.90;46.20
48208;DHT22;33997;53.278;9.708;2023-05-21T13:54:03;29.90;44.80
48208;DHT22;33997;53.278;9.708;2023-05-21T13:56:28;29.90;43.00
48208;DHT22;33997;53.278;9.708;2023-05-21T13:58:54;30.40;46.40
48208;DHT22;33997;53.278;9.708;2023-05-21T14:01:19;30.50;46.00
48208;DHT22;33997;53.278;9.708;2023-05-21T14:03:45;30.20;43.70
48208;DHT22;33997;53.278;9.708;2023-05-21T14:06:10;29.50;44.40
48208;DHT22;33997;53.278;9.708;2023-05-21T14:08:36;29.60;46.60
48208;DHT22;33997;53.278;9.708;2023-05-21T14:11:02;30.10;45.50
48208;DHT22;33997;53.278;9.708;2023-05-21T14:13:27;29.50;46.10
48208;DHT22;33997;53.278;9.708;2023-05-21T14:15:53;29.70;46.80
48208;DHT22;33997;53.278;9.708;2023-05-21T14:18:18;29.50;47.50
48208;DHT22;33997;53.278;9.708;2023-05-21T14:20:44;29.00;47.80
48208;DHT22;33997;53.278;9.708;2023-05-21T14:23:09;29.20;49.00
48208;DHT22;33997;53.278;9.708;2023-05-21T14:25:35;29.10;50.80
48208;DHT22;33997;53.278;9.708;2023-05-21T14:28:01;29.20;49.50
48208;DHT22;33997;53.278;9.708;2023-05-21T14:30:26;28.90;48.10
48208;DHT22;33997;53.278;9.708;2023-05-21T14:32:52;28.90;46.70
48208;DHT22;33997;53.278;9.708;2023-05-21T14:35:17;28.80;46.80
48208;DHT22;33997;53.278;9.708;2023-05-21T14:37:43;28.50;48.00
48208;DHT22;33997;53.278;9.708;2023-05-21T14:40:09;28.40;48.00
48208;DHT22;33997;53.278;9.708;2023-05-21T14:42:34;28.00;49.50
48208;DHT22;33997;53.278;9.708;2023-05-21T14:45:00;28.00;49.70
48208;DHT22;33997;53.278;9.708;2023-05-21T14:47:25;28.20;50.30
48208;DHT22;33997;53.278;9.708;2023-05-21T14:49:51;28.10;49.60
48208;DHT22;33997;53.278;9.708;2023-05-21T14:52:16;28.00;46.70
48208;DHT22;33997;53.278;9.708;2023-05-21T14:54:42;27.70;45.60
48208;DHT22;33997;53.278;9.708;2023-05-21T14:57:07;27.70;44.90
48208;DHT22;33997;53.278;9.708;2023-05-21T14:59:33;27.90;44.20
48208;DHT22;33997;53.278;9.708;2023-05-21T15:01:58;28.50;44.70
48208;DHT22;33997;53.278;9.708;2023-05-21T15:04:24;28.80;46.50
48208;DHT22;33997;53.278;9.708;2023-05-21T15:06:49;29.40;44.90
48208;DHT22;33997;53.278;9.708;2023-05-21T15:09:15;29.90;44.00
48208;DHT22;33997;53.278;9.708;2023-05-21T15:11:40;29.50;42.90
48208;DHT22;33997;53.278;9.708;2023-05-21T15:14:08;29.60;43.10
48208;DHT22;33997;53.278;9.708;2023-05-21T15:16:33;30.00;41.50
48208;DHT22;33997;53.278;9.708;2023-05-21T15:18:59;30.20;43.60
48208;DHT22;33997;53.278;9.708;2023-05-21T15:21:24;30.40;41.80
48208;DHT22;33997;53.278;9.708;2023-05-21T15:23:50;29.50;43.90
48208;DHT22;33997;53.278;9.708;2023-05-21T15:26:15;29.00;43.10
48208;DHT22;33997;53.278;9.708;2023-05-21T15:28:41;29.30;44.70
48208;DHT22;33997;53.278;9.708;2023-05-21T15:31:06;29.10;44.90
48208;DHT22;33997;53.278;9.708;2023-05-21T15:33:32;28.60;44.70
48208;DHT22;33997;53.278;9.708;2023-05-21T15:35:57;28.60;44.90
48208;DHT22;33997;53.278;9.708;2023-05-21T15:38:25;28.80;44.60
48208;DHT22;33997;53.278;9.708;2023-05-21T15:40:51;28.90;44.30
48208;DHT22;33997;53.278;9.708;2023-05-21T15:43:16;29.60;45.20
48208;DHT22;33997;53.278;9.708;2023-05-21T15:45:42;29.60;44.20